sensor_id;sensor_type;location;lat;lon;timestamp;pressure;altitude;pressure_sealevel;temperature;humidity
55424;BME280;41294;42.666;23.350;2023-03-14T00:01:52;95233.63;;;4.35;64.18
55424;BME280;41294;42.666;23.350;2023-03-14T00:04:17;95228.97;;;4.19;65.29
55424;BME280;41294;42.666;23.350;2023-03-14T00:06:42;95226.78;;;4.14;64.77
55424;BME280;41294;42.666;23.350;2023-03-14T00:09:08;95219.91;;;4.31;63.77
55424;BME280;41294;42.666;23.350;2023-03-14T00:11:33;95215.34;;;4.42;61.75
55424;BME280;41294;42.666;23.350;2023-03-14T00:13:59;95218.16;;;4.54;59.16
55424;BME280;41294;42.666;23.350;2023-03-14T00:16:25;95214.53;;;4.75;58.23
55424;BME280;41294;42.666;23.350;2023-03-14T00:18:51;95215.97;;;4.79;57.14
55424;BME280;41294;42.666;23.350;2023-03-14T00:21:17;95209.16;;;4.59;59.94
55424;BME280;41294;42.666;23.350;2023-03-14T00:23:43;95205.59;;;4.46;59.99
55424;BME280;41294;42.666;23.350;2023-03-14T00:26:15;95202.47;;;4.58;59.20
55424;BME280;41294;42.666;23.350;2023-03-14T00:28:42;95197.69;;;4.53;61.12
55424;BME280;41294;42.666;23.350;2023-03-14T00:31:09;95195.13;;;4.49;62.00
55424;BME280;41294;42.666;23.350;2023-03-14T00:33:36;95196.53;;;4.54;60.84
55424;BME280;41294;42.666;23.350;2023-03-14T00:36:08;95186.41;;;4.33;63.33
55424;BME280;41294;42.666;23.350;2023-03-14T00:38:34;95182.81;;;4.20;62.92
55424;BME280;41294;42.666;23.350;2023-03-14T00:41:03;95179.06;;;4.24;63.34
55424;BME280;41294;42.666;23.350;2023-03-14T00:43:29;95181.06;;;4.10;65.28
55424;BME280;41294;42.666;23.350;2023-03-14T00:45:54;95171.78;;;4.09;65.88
55424;BME280;41294;42.666;23.350;2023-03-14T00:48:20;95168.09;;;3.73;67.85
55424;BME280;41294;42.666;23.350;2023-03-14T00:50:46;95173.72;;;3.68;68.72
55424;BME280;41294;42.666;23.350;2023-03-14T00:53:12;95175.31;;;3.59;68.53
55424;BME280;41294;42.666;23.350;2023-03-14T00:55:40;95176.69;;;3.70;68.45
55424;BME280;41294;42.666;23.350;2023-03-14T00:58:08;95167.94;;;3.50;68.61
55424;BME280;41294;42.666;23.350;2023-03-14T01:00:34;95175.25;;;3.66;67.98
55424;BME280;41294;42.666;23.350;2023-03-14T01:03:00;95169.97;;;3.73;67.41
55424;BME280;41294;42.666;23.350;2023-03-14T01:05:26;95162.59;;;3.68;67.24
55424;BME280;41294;42.666;23.350;2023-03-14T01:07:51;95172.06;;;3.48;67.91
55424;BME280;41294;42.666;23.350;2023-03-14T01:10:17;95169.41;;;3.55;68.29
55424;BME280;41294;42.666;23.350;2023-03-14T01:12:42;95164.94;;;3.55;68.02
55424;BME280;41294;42.666;23.350;2023-03-14T01:15:08;95157.91;;;3.52;68.38
55424;BME280;41294;42.666;23.350;2023-03-14T01:17:34;95153.84;;;3.48;68.38
55424;BME280;41294;42.666;23.350;2023-03-14T01:20:00;95164.66;;;3.43;68.49
55424;BME280;41294;42.666;23.350;2023-03-14T01:22:26;95153.88;;;3.44;68.99
55424;BME280;41294;42.666;23.350;2023-03-14T01:24:51;95139.03;;;3.41;69.03
55424;BME280;41294;42.666;23.350;2023-03-14T01:27:17;95142.13;;;3.33;69.92
55424;BME280;41294;42.666;23.350;2023-03-14T01:29:42;95145.41;;;3.37;69.45
55424;BME280;41294;42.666;23.350;2023-03-14T01:32:08;95141.00;;;3.30;69.51
55424;BME280;41294;42.666;23.350;2023-03-14T01:34:33;95137.59;;;3.37;69.49
55424;BME280;41294;42.666;23.350;2023-03-14T01:36:59;95143.53;;;3.41;69.38
55424;BME280;41294;42.666;23.350;2023-03-14T01:39:26;95135.34;;;3.39;69.48
55424;BME280;41294;42.666;23.350;2023-03-14T01:41:51;95140.34;;;3.23;69.79
55424;BME280;41294;42.666;23.350;2023-03-14T01:44:17;95134.44;;;3.16;70.81
55424;BME280;41294;42.666;23.350;2023-03-14T01:46:46;95137.94;;;2.99;71.53
55424;BME280;41294;42.666;23.350;2023-03-14T01:54:40;95121.53;;;3.09;70.97
55424;BME280;41294;42.666;23.350;2023-03-14T01:57:29;95123.59;;;3.27;69.93
55424;BME280;41294;42.666;23.350;2023-03-14T02:00:02;95127.41;;;3.13;70.23
55424;BME280;41294;42.666;23.350;2023-03-14T02:02:29;95118.56;;;3.07;70.47
55424;BME280;41294;42.666;23.350;2023-03-14T02:04:56;95124.69;;;2.83;71.51
55424;BME280;41294;42.666;23.350;2023-03-14T02:07:33;95122.41;;;2.92;71.39
55424;BME280;41294;42.666;23.350;2023-03-14T02:10:01;95127.56;;;2.95;71.26
55424;BME280;41294;42.666;23.350;2023-03-14T02:12:27;95125.50;;;2.73;72.42
55424;BME280;41294;42.666;23.350;2023-03-14T02:14:53;95116.22;;;2.72;71.98
55424;BME280;41294;42.666;23.350;2023-03-14T02:17:19;95106.97;;;2.71;72.72
55424;BME280;41294;42.666;23.350;2023-03-14T02:20:01;95105.53;;;2.63;73.65
55424;BME280;41294;42.666;23.350;2023-03-14T02:22:31;95106.22;;;2.74;73.13
55424;BME280;41294;42.666;23.350;2023-03-14T02:27:50;95110.09;;;2.45;75.33
55424;BME280;41294;42.666;23.350;2023-03-14T02:30:21;95107.94;;;2.40;75.63
55424;BME280;41294;42.666;23.350;2023-03-14T02:32:49;95108.25;;;2.42;75.43
55424;BME280;41294;42.666;23.350;2023-03-14T02:35:27;95101.88;;;2.57;74.82
55424;BME280;41294;42.666;23.350;2023-03-14T02:38:23;95111.53;;;2.53;74.41
55424;BME280;41294;42.666;23.350;2023-03-14T02:40:50;95113.78;;;2.54;74.98
55424;BME280;41294;42.666;23.350;2023-03-14T02:43:15;95118.56;;;2.56;74.38
55424;BME280;41294;42.666;23.350;2023-03-14T02:45:46;95121.84;;;2.67;74.02
55424;BME280;41294;42.666;23.350;2023-03-14T02:48:33;95132.56;;;2.69;73.88
55424;BME280;41294;42.666;23.350;2023-03-14T02:51:00;95118.88;;;2.68;73.36
55424;BME280;41294;42.666;23.350;2023-03-14T02:53:31;95115.88;;;2.70;73.52
55424;BME280;41294;42.666;23.350;2023-03-14T02:55:58;95128.19;;;2.62;74.17
55424;BME280;41294;42.666;23.350;2023-03-14T03:00:59;95126.75;;;2.51;74.84
55424;BME280;41294;42.666;23.350;2023-03-14T03:03:24;95126.69;;;2.65;74.42
55424;BME280;41294;42.666;23.350;2023-03-14T03:05:51;95132.72;;;2.48;74.88
55424;BME280;41294;42.666;23.350;2023-03-14T03:08:21;95123.84;;;2.42;75.49
55424;BME280;41294;42.666;23.350;2023-03-14T03:10:47;95125.00;;;2.41;75.74
55424;BME280;41294;42.666;23.350;2023-03-14T03:13:13;95125.69;;;2.45;75.56
55424;BME280;41294;42.666;23.350;2023-03-14T03:15:38;95116.81;;;2.42;75.74
55424;BME280;41294;42.666;23.350;2023-03-14T03:18:04;95117.63;;;2.29;76.25
55424;BME280;41294;42.666;23.350;2023-03-14T03:20:30;95121.72;;;2.30;76.30
55424;BME280;41294;42.666;23.350;2023-03-14T03:22:55;95114.63;;;2.34;76.57
55424;BME280;41294;42.666;23.350;2023-03-14T03:25:21;95120.53;;;2.38;76.06
55424;BME280;41294;42.666;23.350;2023-03-14T03:27:46;95127.22;;;2.39;75.92
55424;BME280;41294;42.666;23.350;2023-03-14T03:30:12;95126.50;;;2.32;76.34
55424;BME280;41294;42.666;23.350;2023-03-14T03:32:37;95122.06;;;2.36;76.26
55424;BME280;41294;42.666;23.350;2023-03-14T03:35:04;95123.88;;;2.35;76.15
55424;BME280;41294;42.666;23.350;2023-03-14T03:37:31;95122.47;;;2.24;77.30
55424;BME280;41294;42.666;23.350;2023-03-14T03:39:57;95114.66;;;2.27;77.28
55424;BME280;41294;42.666;23.350;2023-03-14T03:42:22;95119.13;;;2.30;76.88
55424;BME280;41294;42.666;23.350;2023-03-14T03:44:47;95122.06;;;2.32;77.10
55424;BME280;41294;42.666;23.350;2023-03-14T03:47:13;95122.06;;;2.36;77.13
55424;BME280;41294;42.666;23.350;2023-03-14T03:49:39;95128.44;;;2.17;77.45
55424;BME280;41294;42.666;23.350;2023-03-14T03:52:04;95122.81;;;2.29;76.73
55424;BME280;41294;42.666;23.350;2023-03-14T03:54:29;95131.69;;;2.32;76.91
55424;BME280;41294;42.666;23.350;2023-03-14T03:56:55;95135.41;;;2.34;76.80
55424;BME280;41294;42.666;23.350;2023-03-14T03:59:21;95135.41;;;2.34;76.53
55424;BME280;41294;42.666;23.350;2023-03-14T04:01:47;95135.41;;;2.34;76.33
55424;BME280;41294;42.666;23.350;2023-03-14T04:04:13;95131.00;;;2.24;76.84
55424;BME280;41294;42.666;23.350;2023-03-14T04:06:38;95136.56;;;2.23;76.69
55424;BME280;41294;42.666;23.350;2023-03-14T04:09:03;95132.47;;;2.25;76.79
55424;BME280;41294;42.666;23.350;2023-03-14T04:11:29;95137.00;;;2.14;76.96
55424;BME280;41294;42.666;23.350;2023-03-14T04:13:54;95131.81;;;2.07;77.93
55424;BME280;41294;42.666;23.350;2023-03-14T04:16:24;95127.41;;;2.04;77.60
55424;BME280;41294;42.666;23.350;2023-03-14T04:18:50;95124.03;;;2.07;77.74
55424;BME280;41294;42.666;23.350;2023-03-14T04:21:17;95121.03;;;2.16;77.79
55424;BME280;41294;42.666;23.350;2023-03-14T04:23:42;95114.75;;;2.13;77.51
55424;BME280;41294;42.666;23.350;2023-03-14T04:26:08;95111.03;;;2.11;78.08
55424;BME280;41294;42.666;23.350;2023-03-14T04:28:33;95101.81;;;1.99;78.48
55424;BME280;41294;42.666;23.350;2023-03-14T04:31:07;95102.22;;;1.98;78.60
55424;BME280;41294;42.666;23.350;2023-03-14T04:33:33;95108.88;;;2.02;78.08
55424;BME280;41294;42.666;23.350;2023-03-14T04:35:59;95106.63;;;2.04;77.90
55424;BME280;41294;42.666;23.350;2023-03-14T04:38:24;95099.25;;;1.96;78.73
55424;BME280;41294;42.666;23.350;2023-03-14T04:40:49;95093.38;;;1.88;79.02
55424;BME280;41294;42.666;23.350;2023-03-14T04:43:15;95092.56;;;1.98;78.18
55424;BME280;41294;42.666;23.350;2023-03-14T04:45:42;95086.22;;;2.06;77.47
55424;BME280;41294;42.666;23.350;2023-03-14T04:48:07;95097.28;;;2.17;77.03
55424;BME280;41294;42.666;23.350;2023-03-14T04:50:33;95086.84;;;2.82;75.85
55424;BME280;41294;42.666;23.350;2023-03-14T04:52:58;95083.81;;;3.27;73.59
55424;BME280;41294;42.666;23.350;2023-03-14T04:55:24;95079.78;;;3.22;72.70
55424;BME280;41294;42.666;23.350;2023-03-14T04:57:49;95072.22;;;2.95;73.39
55424;BME280;41294;42.666;23.350;2023-03-14T05:00:15;95070.53;;;2.78;74.06
55424;BME280;41294;42.666;23.350;2023-03-14T05:02:43;95083.97;;;2.69;74.94
55424;BME280;41294;42.666;23.350;2023-03-14T05:05:09;95083.31;;;2.58;75.74
55424;BME280;41294;42.666;23.350;2023-03-14T05:07:34;95076.72;;;2.43;75.99
55424;BME280;41294;42.666;23.350;2023-03-14T05:09:59;95078.19;;;2.48;75.90
55424;BME280;41294;42.666;23.350;2023-03-14T05:12:25;95080.84;;;2.41;76.38
55424;BME280;41294;42.666;23.350;2023-03-14T05:14:50;95075.91;;;2.57;75.39
55424;BME280;41294;42.666;23.350;2023-03-14T05:17:16;95071.00;;;2.66;75.42
55424;BME280;41294;42.666;23.350;2023-03-14T05:19:41;95081.34;;;2.73;75.01
55424;BME280;41294;42.666;23.350;2023-03-14T05:22:07;95074.88;;;2.91;74.86
55424;BME280;41294;42.666;23.350;2023-03-14T05:24:33;95077.88;;;2.86;74.54
55424;BME280;41294;42.666;23.350;2023-03-14T05:26:58;95080.50;;;2.86;74.69
55424;BME280;41294;42.666;23.350;2023-03-14T05:29:24;95069.59;;;3.02;74.64
55424;BME280;41294;42.666;23.350;2023-03-14T05:31:49;95077.38;;;4.81;69.30
55424;BME280;41294;42.666;23.350;2023-03-14T05:34:15;95070.78;;;6.66;62.20
55424;BME280;41294;42.666;23.350;2023-03-14T05:36:41;95058.84;;;7.70;58.42
55424;BME280;41294;42.666;23.350;2023-03-14T05:39:06;95061.72;;;8.53;55.28
55424;BME280;41294;42.666;23.350;2023-03-14T05:41:31;95071.47;;;9.24;53.17
55424;BME280;41294;42.666;23.350;2023-03-14T05:43:57;95054.34;;;9.75;51.27
55424;BME280;41294;42.666;23.350;2023-03-14T05:46:22;95062.22;;;10.48;49.32
55424;BME280;41294;42.666;23.350;2023-03-14T05:48:48;95059.75;;;11.10;48.30
55424;BME280;41294;42.666;23.350;2023-03-14T05:51:13;95062.81;;;11.00;46.52
55424;BME280;41294;42.666;23.350;2023-03-14T05:53:38;95056.41;;;11.28;46.36
55424;BME280;41294;42.666;23.350;2023-03-14T05:56:04;95057.00;;;11.94;45.46
55424;BME280;41294;42.666;23.350;2023-03-14T05:58:30;95062.81;;;12.16;44.45
55424;BME280;41294;42.666;23.350;2023-03-14T06:00:55;95060.44;;;12.27;43.40
55424;BME280;41294;42.666;23.350;2023-03-14T06:03:20;95062.03;;;12.75;42.27
55424;BME280;41294;42.666;23.350;2023-03-14T06:05:46;95063.44;;;12.94;41.09
55424;BME280;41294;42.666;23.350;2023-03-14T06:08:15;95059.88;;;12.64;41.56
55424;BME280;41294;42.666;23.350;2023-03-14T06:10:40;95054.47;;;13.61;39.83
55424;BME280;41294;42.666;23.350;2023-03-14T06:13:06;95048.25;;;13.50;39.04
55424;BME280;41294;42.666;23.350;2023-03-14T06:15:31;95052.41;;;12.22;39.96
55424;BME280;41294;42.666;23.350;2023-03-14T06:17:59;95052.31;;;10.52;43.07
55424;BME280;41294;42.666;23.350;2023-03-14T06:20:24;95049.16;;;9.07;46.92
55424;BME280;41294;42.666;23.350;2023-03-14T06:22:50;95059.81;;;8.66;47.70
55424;BME280;41294;42.666;23.350;2023-03-14T06:25:15;95053.91;;;9.76;45.97
55424;BME280;41294;42.666;23.350;2023-03-14T06:27:41;95065.13;;;10.41;43.64
55424;BME280;41294;42.666;23.350;2023-03-14T06:30:07;95061.63;;;8.44;47.41
55424;BME280;41294;42.666;23.350;2023-03-14T06:32:34;95064.22;;;7.79;49.79
55424;BME280;41294;42.666;23.350;2023-03-14T06:34:59;95071.50;;;8.00;50.05
55424;BME280;41294;42.666;23.350;2023-03-14T06:37:27;95059.97;;;9.64;45.86
55424;BME280;41294;42.666;23.350;2023-03-14T06:39:53;95054.53;;;9.80;45.13
55424;BME280;41294;42.666;23.350;2023-03-14T06:42:19;95048.72;;;10.37;44.15
55424;BME280;41294;42.666;23.350;2023-03-14T06:44:44;95049.41;;;11.43;42.57
55424;BME280;41294;42.666;23.350;2023-03-14T06:47:09;95050.59;;;11.59;41.24
55424;BME280;41294;42.666;23.350;2023-03-14T06:49:35;95045.72;;;9.95;45.08
55424;BME280;41294;42.666;23.350;2023-03-14T06:52:00;95035.91;;;11.05;43.17
55424;BME280;41294;42.666;23.350;2023-03-14T06:54:26;95042.94;;;12.80;40.03
55424;BME280;41294;42.666;23.350;2023-03-14T06:56:51;95032.94;;;12.84;38.88
55424;BME280;41294;42.666;23.350;2023-03-14T06:59:16;95033.19;;;12.95;38.43
55424;BME280;41294;42.666;23.350;2023-03-14T07:01:42;95024.47;;;13.64;37.56
55424;BME280;41294;42.666;23.350;2023-03-14T07:04:09;95017.03;;;13.54;38.04
55424;BME280;41294;42.666;23.350;2023-03-14T07:06:34;95013.88;;;12.47;39.01
55424;BME280;41294;42.666;23.350;2023-03-14T07:09:00;95026.34;;;13.12;38.40
55424;BME280;41294;42.666;23.350;2023-03-14T07:11:26;95010.22;;;13.76;37.08
55424;BME280;41294;42.666;23.350;2023-03-14T07:13:51;95015.72;;;11.29;39.42
55424;BME280;41294;42.666;23.350;2023-03-14T07:16:17;95010.56;;;10.98;41.07
55424;BME280;41294;42.666;23.350;2023-03-14T07:18:43;95011.69;;;10.62;42.10
55424;BME280;41294;42.666;23.350;2023-03-14T07:21:09;95010.34;;;12.50;38.95
55424;BME280;41294;42.666;23.350;2023-03-14T07:23:34;95012.63;;;12.66;38.13
55424;BME280;41294;42.666;23.350;2023-03-14T07:26:00;95011.34;;;13.32;37.24
55424;BME280;41294;42.666;23.350;2023-03-14T07:28:26;95008.97;;;14.00;35.75
55424;BME280;41294;42.666;23.350;2023-03-14T07:30:53;95009.31;;;14.37;35.54
55424;BME280;41294;42.666;23.350;2023-03-14T07:33:18;95004.94;;;13.76;36.17
55424;BME280;41294;42.666;23.350;2023-03-14T07:35:44;95006.63;;;11.12;40.62
55424;BME280;41294;42.666;23.350;2023-03-14T07:38:09;94998.47;;;11.19;41.28
55424;BME280;41294;42.666;23.350;2023-03-14T07:40:34;95003.41;;;12.85;38.99
55424;BME280;41294;42.666;23.350;2023-03-14T07:43:00;94994.63;;;12.56;38.71
55424;BME280;41294;42.666;23.350;2023-03-14T07:45:25;94995.38;;;12.80;38.13
55424;BME280;41294;42.666;23.350;2023-03-14T07:47:51;94986.84;;;11.79;39.17
55424;BME280;41294;42.666;23.350;2023-03-14T07:50:16;94979.69;;;10.90;40.95
55424;BME280;41294;42.666;23.350;2023-03-14T07:52:42;94982.63;;;12.14;39.31
55424;BME280;41294;42.666;23.350;2023-03-14T07:55:07;94983.81;;;11.36;40.03
55424;BME280;41294;42.666;23.350;2023-03-14T07:57:33;94979.09;;;10.95;41.05
55424;BME280;41294;42.666;23.350;2023-03-14T07:59:58;94978.78;;;10.75;41.98
55424;BME280;41294;42.666;23.350;2023-03-14T08:02:24;94985.84;;;11.05;40.79
55424;BME280;41294;42.666;23.350;2023-03-14T08:04:50;94983.09;;;10.03;43.19
55424;BME280;41294;42.666;23.350;2023-03-14T08:07:15;94980.72;;;11.01;41.51
55424;BME280;41294;42.666;23.350;2023-03-14T08:09:41;94969.88;;;11.62;40.58
55424;BME280;41294;42.666;23.350;2023-03-14T08:12:07;94975.31;;;13.20;37.33
55424;BME280;41294;42.666;23.350;2023-03-14T08:14:32;94975.13;;;13.76;36.51
55424;BME280;41294;42.666;23.350;2023-03-14T08:16:58;94973.19;;;13.10;36.85
55424;BME280;41294;42.666;23.350;2023-03-14T08:19:23;94974.97;;;13.27;36.62
55424;BME280;41294;42.666;23.350;2023-03-14T08:21:49;94976.94;;;12.71;36.89
55424;BME280;41294;42.666;23.350;2023-03-14T08:24:15;94967.16;;;14.04;36.11
55424;BME280;41294;42.666;23.350;2023-03-14T08:26:40;94968.69;;;14.40;34.61
55424;BME280;41294;42.666;23.350;2023-03-14T08:29:06;94966.28;;;13.64;34.97
55424;BME280;41294;42.666;23.350;2023-03-14T08:31:34;94958.13;;;13.82;35.37
55424;BME280;41294;42.666;23.350;2023-03-14T08:34:00;94972.19;;;12.84;36.77
55424;BME280;41294;42.666;23.350;2023-03-14T08:36:25;94961.34;;;14.15;34.95
55424;BME280;41294;42.666;23.350;2023-03-14T08:38:51;94956.47;;;15.67;33.02
55424;BME280;41294;42.666;23.350;2023-03-14T08:41:16;94957.88;;;13.95;34.95
55424;BME280;41294;42.666;23.350;2023-03-14T08:43:41;94946.34;;;14.80;33.90
55424;BME280;41294;42.666;23.350;2023-03-14T08:46:07;94939.63;;;16.01;32.55
55424;BME280;41294;42.666;23.350;2023-03-14T08:48:32;94946.19;;;16.83;30.18
55424;BME280;41294;42.666;23.350;2023-03-14T08:51:09;94938.53;;;14.91;32.38
55424;BME280;41294;42.666;23.350;2023-03-14T08:53:36;94931.50;;;16.10;31.92
55424;BME280;41294;42.666;23.350;2023-03-14T08:56:02;94926.94;;;14.89;32.08
55424;BME280;41294;42.666;23.350;2023-03-14T08:58:27;94920.25;;;15.95;32.17
55424;BME280;41294;42.666;23.350;2023-03-14T09:00:53;94916.28;;;16.10;31.49
55424;BME280;41294;42.666;23.350;2023-03-14T09:03:18;94915.16;;;17.17;30.48
55424;BME280;41294;42.666;23.350;2023-03-14T09:05:43;94908.47;;;18.19;28.69
55424;BME280;41294;42.666;23.350;2023-03-14T09:08:09;94900.50;;;16.32;29.92
55424;BME280;41294;42.666;23.350;2023-03-14T09:10:34;94899.16;;;15.04;32.05
55424;BME280;41294;42.666;23.350;2023-03-14T09:13:00;94896.41;;;16.78;30.66
55424;BME280;41294;42.666;23.350;2023-03-14T09:15:25;94889.59;;;17.63;28.91
55424;BME280;41294;42.666;23.350;2023-03-14T09:17:51;94880.63;;;18.20;27.88
55424;BME280;41294;42.666;23.350;2023-03-14T09:20:16;94875.78;;;17.37;28.80
55424;BME280;41294;42.666;23.350;2023-03-14T09:23:00;94878.09;;;16.97;29.88
55424;BME280;41294;42.666;23.350;2023-03-14T09:25:26;94868.78;;;17.89;28.64
55424;BME280;41294;42.666;23.350;2023-03-14T09:27:52;94865.28;;;16.01;29.92
55424;BME280;41294;42.666;23.350;2023-03-14T09:30:17;94860.91;;;15.98;30.44
55424;BME280;41294;42.666;23.350;2023-03-14T09:32:42;94854.97;;;12.96;34.10
55424;BME280;41294;42.666;23.350;2023-03-14T09:35:09;94852.81;;;14.55;32.59
55424;BME280;41294;42.666;23.350;2023-03-14T09:37:35;94851.75;;;14.47;32.21
55424;BME280;41294;42.666;23.350;2023-03-14T09:40:01;94845.38;;;15.85;31.25
55424;BME280;41294;42.666;23.350;2023-03-14T09:42:35;94843.19;;;15.78;30.48
55424;BME280;41294;42.666;23.350;2023-03-14T09:45:06;94829.94;;;14.77;31.94
55424;BME280;41294;42.666;23.350;2023-03-14T09:47:33;94819.97;;;16.10;30.75
55424;BME280;41294;42.666;23.350;2023-03-14T09:50:03;94813.34;;;17.60;29.24
55424;BME280;41294;42.666;23.350;2023-03-14T09:52:34;94812.88;;;15.29;30.60
55424;BME280;41294;42.666;23.350;2023-03-14T09:55:07;94813.81;;;12.89;34.02
55424;BME280;41294;42.666;23.350;2023-03-14T09:57:36;94804.59;;;12.47;34.88
55424;BME280;41294;42.666;23.350;2023-03-14T10:00:13;94803.63;;;13.94;33.44
55424;BME280;41294;42.666;23.350;2023-03-14T10:02:42;94806.59;;;12.90;34.67
55424;BME280;41294;42.666;23.350;2023-03-14T10:05:18;94797.28;;;13.86;33.77
55424;BME280;41294;42.666;23.350;2023-03-14T10:07:45;94789.78;;;14.39;33.23
55424;BME280;41294;42.666;23.350;2023-03-14T10:12:39;94787.41;;;14.41;33.58
55424;BME280;41294;42.666;23.350;2023-03-14T10:15:10;94780.47;;;14.94;33.16
55424;BME280;41294;42.666;23.350;2023-03-14T10:17:41;94776.00;;;16.09;31.71
55424;BME280;41294;42.666;23.350;2023-03-14T10:20:26;94764.59;;;14.69;33.90
55424;BME280;41294;42.666;23.350;2023-03-14T10:22:53;94759.16;;;14.83;34.25
55424;BME280;41294;42.666;23.350;2023-03-14T10:25:27;94749.66;;;13.86;35.38
55424;BME280;41294;42.666;23.350;2023-03-14T10:27:53;94741.06;;;14.31;35.84
55424;BME280;41294;42.666;23.350;2023-03-14T10:30:33;94741.06;;;13.22;37.13
55424;BME280;41294;42.666;23.350;2023-03-14T10:33:08;94732.84;;;13.89;37.10
55424;BME280;41294;42.666;23.350;2023-03-14T10:35:34;94730.91;;;15.00;35.04
55424;BME280;41294;42.666;23.350;2023-03-14T10:38:02;94738.09;;;15.61;34.26
55424;BME280;41294;42.666;23.350;2023-03-14T10:40:42;94721.31;;;15.75;34.38
55424;BME280;41294;42.666;23.350;2023-03-14T10:43:17;94704.19;;;15.40;34.78
55424;BME280;41294;42.666;23.350;2023-03-14T10:45:51;94702.66;;;15.64;34.62
55424;BME280;41294;42.666;23.350;2023-03-14T10:48:31;94693.56;;;14.47;36.27
55424;BME280;41294;42.666;23.350;2023-03-14T10:53:48;94681.84;;;15.52;35.61
55424;BME280;41294;42.666;23.350;2023-03-14T10:56:18;94675.69;;;14.42;37.07
55424;BME280;41294;42.666;23.350;2023-03-14T10:58:47;94663.59;;;15.70;35.24
55424;BME280;41294;42.666;23.350;2023-03-14T11:24:17;94597.91;;;15.54;35.01
55424;BME280;41294;42.666;23.350;2023-03-14T11:32:41;94571.53;;;16.96;33.15
55424;BME280;41294;42.666;23.350;2023-03-14T11:35:41;94561.75;;;17.26;32.22
55424;BME280;41294;42.666;23.350;2023-03-14T11:41:09;94556.09;;;16.78;32.74
55424;BME280;41294;42.666;23.350;2023-03-14T11:43:40;94552.22;;;16.79;32.76
55424;BME280;41294;42.666;23.350;2023-03-14T11:46:32;94545.25;;;16.49;33.50
55424;BME280;41294;42.666;23.350;2023-03-14T11:49:24;94543.75;;;15.99;34.01
55424;BME280;41294;42.666;23.350;2023-03-14T11:54:47;94528.72;;;17.05;32.72
55424;BME280;41294;42.666;23.350;2023-03-14T11:57:18;94519.28;;;18.07;31.12
55424;BME280;41294;42.666;23.350;2023-03-14T12:00:03;94521.44;;;18.43;30.44
55424;BME280;41294;42.666;23.350;2023-03-14T12:05:41;94504.75;;;17.67;30.87
55424;BME280;41294;42.666;23.350;2023-03-14T12:13:57;94482.69;;;16.43;32.36
55424;BME280;41294;42.666;23.350;2023-03-14T12:16:35;94478.28;;;17.40;31.19
55424;BME280;41294;42.666;23.350;2023-03-14T12:21:56;94463.53;;;18.67;29.96
55424;BME280;41294;42.666;23.350;2023-03-14T12:24:27;94460.63;;;18.12;30.40
55424;BME280;41294;42.666;23.350;2023-03-14T12:26:59;94459.41;;;18.42;30.13
55424;BME280;41294;42.666;23.350;2023-03-14T12:29:25;94444.47;;;19.00;29.62
55424;BME280;41294;42.666;23.350;2023-03-14T12:32:20;94437.31;;;19.50;29.20
55424;BME280;41294;42.666;23.350;2023-03-14T12:34:46;94440.94;;;19.34;28.95
55424;BME280;41294;42.666;23.350;2023-03-14T12:37:41;94439.00;;;17.92;29.97
55424;BME280;41294;42.666;23.350;2023-03-14T12:40:21;94438.94;;;17.22;30.95
55424;BME280;41294;42.666;23.350;2023-03-14T12:42:59;94425.88;;;17.64;30.35
55424;BME280;41294;42.666;23.350;2023-03-14T12:45:37;94427.66;;;17.51;30.69
55424;BME280;41294;42.666;23.350;2023-03-14T12:48:07;94424.66;;;17.65;30.83
55424;BME280;41294;42.666;23.350;2023-03-14T12:50:54;94422.88;;;16.87;31.59
55424;BME280;41294;42.666;23.350;2023-03-14T12:56:21;94420.78;;;16.69;31.56
55424;BME280;41294;42.666;23.350;2023-03-14T13:04:47;94399.78;;;16.66;31.66
55424;BME280;41294;42.666;23.350;2023-03-14T13:07:33;94387.50;;;16.41;31.65
55424;BME280;41294;42.666;23.350;2023-03-14T13:10:18;94384.63;;;16.28;31.82
55424;BME280;41294;42.666;23.350;2023-03-14T13:13:01;94375.53;;;16.80;31.22
55424;BME280;41294;42.666;23.350;2023-03-14T13:15:38;94374.34;;;17.62;30.10
55424;BME280;41294;42.666;23.350;2023-03-14T13:18:15;94377.22;;;17.64;30.23
55424;BME280;41294;42.666;23.350;2023-03-14T13:20:51;94359.25;;;17.99;30.15
55424;BME280;41294;42.666;23.350;2023-03-14T13:23:39;94366.84;;;17.90;29.80
55424;BME280;41294;42.666;23.350;2023-03-14T13:26:11;94360.13;;;17.54;29.58
55424;BME280;41294;42.666;23.350;2023-03-14T13:28:38;94348.81;;;17.48;29.94
55424;BME280;41294;42.666;23.350;2023-03-14T13:31:04;94348.19;;;17.66;29.82
55424;BME280;41294;42.666;23.350;2023-03-14T13:33:32;94339.50;;;17.31;29.72
55424;BME280;41294;42.666;23.350;2023-03-14T13:36:03;94334.31;;;17.03;30.06
55424;BME280;41294;42.666;23.350;2023-03-14T13:38:32;94338.69;;;17.01;30.04
55424;BME280;41294;42.666;23.350;2023-03-14T13:41:00;94320.56;;;16.99;30.16
55424;BME280;41294;42.666;23.350;2023-03-14T13:43:35;94317.75;;;16.86;30.38
55424;BME280;41294;42.666;23.350;2023-03-14T13:46:13;94317.44;;;17.01;30.46
55424;BME280;41294;42.666;23.350;2023-03-14T13:48:48;94306.47;;;16.75;30.41
55424;BME280;41294;42.666;23.350;2023-03-14T13:51:17;94301.53;;;17.30;31.28
55424;BME280;41294;42.666;23.350;2023-03-14T13:53:48;94297.09;;;17.38;30.20
55424;BME280;41294;42.666;23.350;2023-03-14T13:56:16;94292.75;;;17.64;29.90
55424;BME280;41294;42.666;23.350;2023-03-14T13:58:42;94288.94;;;17.25;30.03
55424;BME280;41294;42.666;23.350;2023-03-14T14:01:25;94285.91;;;17.45;29.82
55424;BME280;41294;42.666;23.350;2023-03-14T14:03:55;94276.69;;;17.17;30.17
55424;BME280;41294;42.666;23.350;2023-03-14T14:09:19;94262.34;;;17.25;29.84
55424;BME280;41294;42.666;23.350;2023-03-14T14:14:37;94264.88;;;16.21;30.79
55424;BME280;41294;42.666;23.350;2023-03-14T14:17:07;94245.56;;;16.26;30.84
55424;BME280;41294;42.666;23.350;2023-03-14T14:19:35;94250.59;;;16.40;30.61